createdAt,value
2022-12-03T00:02:21.570Z,4.10
2022-12-03T00:04:48.353Z,4.20
2022-12-03T00:07:14.980Z,4.10
2022-12-03T00:09:41.614Z,4.10
2022-12-03T00:12:08.605Z,4.10
2022-12-03T00:14:37.819Z,4.20
2022-12-03T00:17:08.026Z,4.10
2022-12-03T00:19:34.661Z,4.10
2022-12-03T00:22:04.143Z,4.10
2022-12-03T00:24:31.390Z,4.20
2022-12-03T00:26:58.049Z,4.30
2022-12-03T00:29:24.702Z,4.40
2022-12-03T00:31:51.306Z,4.40
2022-12-03T00:34:18.042Z,4.40
2022-12-03T00:36:44.762Z,4.40
2022-12-03T00:39:11.390Z,4.30
2022-12-03T00:41:38.025Z,4.10
2022-12-03T00:44:04.914Z,4.10
2022-12-03T00:46:31.652Z,4.00
2022-12-03T00:48:58.342Z,4.00
2022-12-03T00:51:25.001Z,4.10
2022-12-03T00:53:51.622Z,4.20
2022-12-03T00:56:18.210Z,4.00
2022-12-03T00:58:44.861Z,4.00
2022-12-03T01:01:11.493Z,4.00
2022-12-03T01:03:38.117Z,4.00
2022-12-03T01:06:04.952Z,3.90
2022-12-03T01:08:31.578Z,3.80
2022-12-03T01:10:58.281Z,4.00
2022-12-03T01:13:24.932Z,3.90
2022-12-03T01:15:51.734Z,3.70
2022-12-03T01:18:18.434Z,3.80
2022-12-03T01:20:45.214Z,3.80
2022-12-03T01:23:11.926Z,3.90
2022-12-03T01:25:38.635Z,4.00
2022-12-03T01:28:05.264Z,3.90
2022-12-03T01:30:51.875Z,3.90
2022-12-03T01:33:18.590Z,3.90
2022-12-03T01:35:46.328Z,3.90
2022-12-03T01:38:12.952Z,4.10
2022-12-03T01:40:39.731Z,4.20
2022-12-03T01:43:06.394Z,4.00
2022-12-03T01:45:33.101Z,4.00
2022-12-03T01:48:00.703Z,4.10
2022-12-03T01:50:33.127Z,4.10
2022-12-03T01:53:02.305Z,4.20
2022-12-03T01:55:29.793Z,4.20
2022-12-03T01:58:00.700Z,4.20
2022-12-03T02:00:28.389Z,4.20
2022-12-03T02:03:01.251Z,4.20
2022-12-03T02:05:30.619Z,4.30
2022-12-03T02:07:58.451Z,4.30
2022-12-03T02:10:32.210Z,4.30
2022-12-03T02:13:02.713Z,4.30
2022-12-03T02:15:29.553Z,4.20
2022-12-03T02:17:57.694Z,4.20
2022-12-03T02:20:24.456Z,4.10
2022-12-03T02:23:03.632Z,4.20
2022-12-03T02:25:33.383Z,4.10
2022-12-03T02:28:01.497Z,4.10
2022-12-03T02:30:29.766Z,4.10
2022-12-03T02:32:57.181Z,4.10
2022-12-03T02:35:31.677Z,4.20
2022-12-03T02:38:25.316Z,4.30
2022-12-03T02:40:56.669Z,4.30
2022-12-03T02:43:24.000Z,4.30
2022-12-03T02:45:53.927Z,4.30
2022-12-03T02:48:34.493Z,4.00
2022-12-03T02:51:04.795Z,4.10
2022-12-03T02:53:36.151Z,4.00
2022-12-03T02:56:04.495Z,4.10
2022-12-03T02:58:32.720Z,4.20
2022-12-03T03:01:02.179Z,4.20
2022-12-03T03:03:30.865Z,4.20
2022-12-03T03:05:59.294Z,4.10
2022-12-03T03:08:27.004Z,4.10
2022-12-03T03:10:54.917Z,3.90
2022-12-03T03:13:22.137Z,4.00
2022-12-03T03:15:48.873Z,4.10
2022-12-03T03:18:16.601Z,4.20
2022-12-03T03:20:44.149Z,4.10
2022-12-03T03:23:21.947Z,4.00
2022-12-03T03:26:16.516Z,4.10
2022-12-03T03:28:47.616Z,4.20
2022-12-03T03:31:17.869Z,4.20
2022-12-03T03:33:46.922Z,4.20
2022-12-03T03:36:14.707Z,4.10
2022-12-03T03:38:41.965Z,4.10
2022-12-03T03:41:10.520Z,4.10
2022-12-03T03:43:38.915Z,4.10
2022-12-03T03:46:07.179Z,4.20
2022-12-03T03:48:35.239Z,4.30
2022-12-03T03:51:08.672Z,4.30
2022-12-03T03:53:38.551Z,4.30
2022-12-03T03:56:05.727Z,4.40
2022-12-03T03:58:32.533Z,4.30
2022-12-03T04:01:00.363Z,4.30
2022-12-03T04:03:28.207Z,4.30
2022-12-03T04:05:55.197Z,4.20
2022-12-03T04:08:21.858Z,4.20
2022-12-03T04:11:07.413Z,4.30
2022-12-03T04:13:34.040Z,4.40
2022-12-03T04:16:00.771Z,4.40
2022-12-03T04:18:42.774Z,4.40
2022-12-03T04:21:33.036Z,4.40
2022-12-03T04:24:00.310Z,4.30
2022-12-03T04:26:45.461Z,4.40
2022-12-03T04:29:13.107Z,4.40
2022-12-03T04:31:58.398Z,4.40
2022-12-03T04:34:43.891Z,4.50
2022-12-03T04:37:10.708Z,4.40
2022-12-03T04:39:37.659Z,4.40
2022-12-03T04:42:05.811Z,4.20
2022-12-03T04:44:33.176Z,4.20
2022-12-03T04:47:00.822Z,4.30
2022-12-03T04:49:27.475Z,4.20
2022-12-03T04:51:54.179Z,4.20
2022-12-03T04:54:20.837Z,4.20
2022-12-03T04:56:47.568Z,4.30
2022-12-03T04:59:16.567Z,4.40
2022-12-03T05:01:44.520Z,4.40
2022-12-03T05:04:12.795Z,4.40
2022-12-03T05:06:39.766Z,4.30
2022-12-03T05:09:06.843Z,4.30
2022-12-03T05:11:33.872Z,4.20
2022-12-03T05:14:00.711Z,4.10
2022-12-03T05:16:27.405Z,4.20
2022-12-03T05:18:54.099Z,4.20
2022-12-03T05:21:20.740Z,4.20
2022-12-03T05:23:47.418Z,4.10
2022-12-03T05:26:14.156Z,4.20
2022-12-03T05:28:40.942Z,4.20
2022-12-03T05:31:07.848Z,4.30
2022-12-03T05:33:36.427Z,4.30
2022-12-03T05:36:06.420Z,4.30
2022-12-03T05:38:33.159Z,4.30
2022-12-03T05:40:59.812Z,4.30
2022-12-03T05:43:26.606Z,4.20
2022-12-03T05:45:53.501Z,4.30
2022-12-03T05:48:20.352Z,4.20
2022-12-03T05:50:47.087Z,4.20
2022-12-03T05:53:14.918Z,4.20
2022-12-03T05:55:42.087Z,4.30
2022-12-03T05:58:09.153Z,4.40
2022-12-03T06:00:42.452Z,4.40
2022-12-03T06:03:10.663Z,4.50
2022-12-03T06:05:37.665Z,4.50
2022-12-03T06:08:04.807Z,4.50
2022-12-03T06:10:31.605Z,4.50
2022-12-03T06:12:58.412Z,4.30
2022-12-03T06:15:25.040Z,4.40
2022-12-03T06:17:52.358Z,4.40
2022-12-03T06:20:20.833Z,4.40
2022-12-03T06:22:47.850Z,4.40
2022-12-03T06:25:16.260Z,4.30
2022-12-03T06:27:43.099Z,4.30
2022-12-03T06:30:12.695Z,4.30
2022-12-03T06:32:39.324Z,4.20
2022-12-03T06:35:06.133Z,4.20
2022-12-03T06:37:32.761Z,4.20
2022-12-03T06:39:59.447Z,4.40
2022-12-03T06:42:26.104Z,4.30
2022-12-03T06:44:53.322Z,4.30
2022-12-03T06:47:20.247Z,4.30
2022-12-03T06:49:46.932Z,4.30
2022-12-03T06:52:13.539Z,4.30
2022-12-03T06:54:40.176Z,4.20
2022-12-03T06:57:06.795Z,4.30
2022-12-03T06:59:35.677Z,4.30
2022-12-03T07:02:02.389Z,4.20
2022-12-03T07:04:29.058Z,4.10
2022-12-03T07:06:55.732Z,4.00
2022-12-03T07:09:22.475Z,4.00
2022-12-03T07:11:49.147Z,3.80
2022-12-03T07:14:15.795Z,3.80
2022-12-03T07:16:43.684Z,3.80
2022-12-03T07:19:11.454Z,3.70
2022-12-03T07:21:38.767Z,3.70
2022-12-03T07:24:06.227Z,3.60
2022-12-03T07:26:33.110Z,3.60
2022-12-03T07:29:00.043Z,3.60
2022-12-03T07:31:26.937Z,3.50
2022-12-03T07:33:53.690Z,3.60
2022-12-03T07:36:20.591Z,3.60
2022-12-03T07:38:47.283Z,3.50
2022-12-03T07:41:13.918Z,3.50
2022-12-03T07:43:40.560Z,3.40
2022-12-03T07:46:07.239Z,3.40
2022-12-03T07:48:34.088Z,3.30
2022-12-03T07:51:00.827Z,3.40
2022-12-03T07:53:27.517Z,3.40
2022-12-03T07:55:54.192Z,3.50
2022-12-03T07:58:26.198Z,3.50
2022-12-03T08:00:53.034Z,3.60
2022-12-03T08:03:19.829Z,3.60
2022-12-03T08:05:46.586Z,3.60
2022-12-03T08:08:13.822Z,3.30
2022-12-03T08:10:40.662Z,3.50
2022-12-03T08:13:13.124Z,3.40
2022-12-03T08:15:39.940Z,3.50
2022-12-03T08:18:21.346Z,3.60
2022-12-03T08:20:51.782Z,3.60
2022-12-03T08:23:25.138Z,3.70
2022-12-03T08:25:53.029Z,3.60
2022-12-03T08:28:20.631Z,3.40
2022-12-03T08:31:02.521Z,3.40
2022-12-03T08:33:36.907Z,3.30
2022-12-03T08:36:11.502Z,3.30
2022-12-03T08:38:38.251Z,3.20
2022-12-03T08:41:14.335Z,3.20
2022-12-03T08:43:43.638Z,3.30
2022-12-03T08:46:18.920Z,3.40
2022-12-03T08:48:48.978Z,3.20
2022-12-03T08:51:20.579Z,3.40
2022-12-03T08:53:50.297Z,3.20
2022-12-03T08:56:30.970Z,3.10
2022-12-03T08:59:28.014Z,3.10
2022-12-03T09:01:55.769Z,3.10
2022-12-03T09:04:53.059Z,3.10
2022-12-03T09:07:20.004Z,3.10
2022-12-03T09:09:46.620Z,3.00
2022-12-03T09:12:13.374Z,3.20
2022-12-03T09:14:40.075Z,3.30
2022-12-03T09:17:06.811Z,3.20
2022-12-03T09:19:33.491Z,3.10
2022-12-03T09:22:00.151Z,3.00
2022-12-03T09:24:26.862Z,3.20
2022-12-03T09:26:54.172Z,3.20
2022-12-03T09:29:20.910Z,3.30
2022-12-03T09:31:47.750Z,3.20
2022-12-03T09:34:14.575Z,3.20
2022-12-03T09:36:41.279Z,3.30
2022-12-03T09:39:07.989Z,3.20
2022-12-03T09:41:37.854Z,3.20
2022-12-03T09:44:10.872Z,3.20
2022-12-03T09:46:43.427Z,3.20
2022-12-03T09:49:15.827Z,3.30
2022-12-03T09:51:44.440Z,3.20
2022-12-03T09:54:22.223Z,3.20
2022-12-03T09:56:49.013Z,3.20
2022-12-03T09:59:16.342Z,3.20
2022-12-03T10:01:43.372Z,3.30
2022-12-03T10:04:10.605Z,3.30
2022-12-03T10:06:42.511Z,3.30
2022-12-03T10:09:14.364Z,3.00
2022-12-03T10:11:41.138Z,3.10
2022-12-03T10:14:10.894Z,3.10
2022-12-03T10:16:40.188Z,3.00
2022-12-03T10:19:09.479Z,3.10
2022-12-03T10:21:38.347Z,3.10
2022-12-03T10:24:20.293Z,3.30
2022-12-03T10:26:49.031Z,3.10
2022-12-03T10:29:24.722Z,3.30
2022-12-03T10:32:00.963Z,3.20
2022-12-03T10:34:30.596Z,3.20
2022-12-03T10:37:22.570Z,3.10
2022-12-03T10:40:11.412Z,3.10
2022-12-03T10:42:41.798Z,3.00
2022-12-03T10:45:24.201Z,3.10
2022-12-03T10:48:27.158Z,3.10
2022-12-03T10:51:24.151Z,3.10
2022-12-03T10:53:51.039Z,3.10
2022-12-03T10:56:27.601Z,3.00
2022-12-03T10:58:54.689Z,3.00
2022-12-03T11:01:24.864Z,3.20
2022-12-03T11:03:52.125Z,3.10
2022-12-03T11:06:21.276Z,3.10
2022-12-03T11:08:56.768Z,3.00
2022-12-03T11:11:26.846Z,3.20
2022-12-03T11:13:55.499Z,3.20
2022-12-03T11:16:40.536Z,3.20
2022-12-03T11:19:13.186Z,3.10
2022-12-03T11:22:05.011Z,3.30
2022-12-03T11:24:36.812Z,3.20
2022-12-03T11:27:03.405Z,3.20
2022-12-03T11:30:02.963Z,3.10
2022-12-03T11:32:38.291Z,3.20
2022-12-03T11:35:23.502Z,3.10
2022-12-03T11:37:50.207Z,3.20
2022-12-03T11:40:16.810Z,3.20
2022-12-03T11:42:45.375Z,3.20
2022-12-03T11:45:33.046Z,3.00
2022-12-03T11:47:59.636Z,3.20
2022-12-03T11:50:40.892Z,3.20
2022-12-03T11:53:25.402Z,3.30
2022-12-03T11:56:08.415Z,3.30
2022-12-03T11:58:41.713Z,3.40
2022-12-03T12:01:09.030Z,3.50
2022-12-03T12:03:42.224Z,3.40
2022-12-03T12:06:14.683Z,3.30
2022-12-03T12:08:56.054Z,3.20
2022-12-03T12:11:30.040Z,3.30
2022-12-03T12:14:01.649Z,3.20
2022-12-03T12:16:41.920Z,3.00
2022-12-03T12:19:33.682Z,3.00
2022-12-03T12:22:15.707Z,3.10
2022-12-03T12:24:43.510Z,3.00
2022-12-03T12:27:12.434Z,3.00
2022-12-03T12:29:41.211Z,3.10
2022-12-03T12:32:10.775Z,3.30
2022-12-03T12:34:42.024Z,3.20
2022-12-03T12:37:47.316Z,3.20
2022-12-03T12:40:17.552Z,3.30
2022-12-03T12:42:51.230Z,2.90
2022-12-03T12:45:24.957Z,2.80
2022-12-03T12:48:09.942Z,2.80
2022-12-03T12:50:45.843Z,3.00
2022-12-03T12:53:32.841Z,3.00
2022-12-03T12:56:24.645Z,2.90
2022-12-03T12:58:51.888Z,2.90
2022-12-03T13:01:25.461Z,3.00
2022-12-03T13:03:52.774Z,3.10
2022-12-03T13:06:29.990Z,3.10
2022-12-03T13:08:58.106Z,3.10
2022-12-03T13:11:24.725Z,3.00
2022-12-03T13:13:52.218Z,2.80
2022-12-03T13:16:31.227Z,2.90
2022-12-03T13:19:02.045Z,2.70
2022-12-03T13:21:56.038Z,2.70
2022-12-03T13:24:45.495Z,2.80
2022-12-03T13:27:18.456Z,2.80
2022-12-03T13:29:48.894Z,2.70
2022-12-03T13:32:40.780Z,2.80
2022-12-03T13:35:10.569Z,2.80
2022-12-03T13:37:38.067Z,2.90
2022-12-03T13:40:23.486Z,2.70
2022-12-03T13:42:50.301Z,2.60
2022-12-03T13:45:16.998Z,2.80
2022-12-03T13:47:49.437Z,2.80
2022-12-03T13:50:32.139Z,2.70
2022-12-03T13:53:01.074Z,2.60
2022-12-03T13:55:31.327Z,2.70
2022-12-03T13:57:58.161Z,2.70
2022-12-03T14:00:25.055Z,2.90
2022-12-03T14:02:51.902Z,2.90
2022-12-03T14:05:19.002Z,3.00
2022-12-03T14:07:45.701Z,3.00
2022-12-03T14:10:13.089Z,2.80
2022-12-03T14:12:39.696Z,2.60
2022-12-03T14:15:07.086Z,2.80
2022-12-03T14:17:33.876Z,2.70
2022-12-03T14:20:01.348Z,2.70
2022-12-03T14:22:28.725Z,2.50
2022-12-03T14:24:55.838Z,2.50
2022-12-03T14:27:23.137Z,2.50
2022-12-03T14:29:50.253Z,2.60
2022-12-03T14:32:17.575Z,2.50
2022-12-03T14:34:44.373Z,2.50
2022-12-03T14:37:11.102Z,2.60
2022-12-03T14:39:39.505Z,2.50
2022-12-03T14:42:15.776Z,2.50
2022-12-03T14:44:52.118Z,2.50
2022-12-03T14:47:22.269Z,2.50
2022-12-03T14:49:49.836Z,2.50
2022-12-03T14:52:17.273Z,2.60
2022-12-03T14:54:44.412Z,2.50
2022-12-03T14:57:12.987Z,2.40
2022-12-03T14:59:43.520Z,2.30
2022-12-03T15:02:14.448Z,2.40
2022-12-03T15:04:41.781Z,2.40
2022-12-03T15:07:09.590Z,2.40
2022-12-03T15:09:36.447Z,2.30
2022-12-03T15:12:04.295Z,2.30
2022-12-03T15:14:31.004Z,2.30
2022-12-03T15:16:57.755Z,2.30
2022-12-03T15:19:24.515Z,2.50
2022-12-03T15:21:51.130Z,2.50
2022-12-03T15:24:17.939Z,2.50
2022-12-03T15:26:44.669Z,2.50
2022-12-03T15:29:14.405Z,2.30
2022-12-03T15:31:41.231Z,2.30
2022-12-03T15:34:08.052Z,2.30
2022-12-03T15:36:34.813Z,2.60
2022-12-03T15:39:01.482Z,2.60
2022-12-03T15:41:31.078Z,2.50
2022-12-03T15:44:01.397Z,2.20
2022-12-03T15:46:29.019Z,2.10
2022-12-03T15:48:56.103Z,2.10
2022-12-03T15:51:24.004Z,2.20
2022-12-03T15:53:50.842Z,2.20
2022-12-03T15:56:17.588Z,2.40
2022-12-03T15:58:44.322Z,2.60
2022-12-03T16:01:13.446Z,2.30
2022-12-03T16:03:40.422Z,2.40
2022-12-03T16:06:07.593Z,2.40
2022-12-03T16:08:34.257Z,2.30
2022-12-03T16:11:00.932Z,2.20
2022-12-03T16:13:27.598Z,2.10
2022-12-03T16:15:54.417Z,2.10
2022-12-03T16:18:21.140Z,2.30
2022-12-03T16:20:47.879Z,2.40
2022-12-03T16:23:14.665Z,2.60
2022-12-03T16:25:41.287Z,2.50
2022-12-03T16:28:08.216Z,2.50
2022-12-03T16:30:36.259Z,2.50
2022-12-03T16:33:04.868Z,2.60
2022-12-03T16:35:31.564Z,2.60
2022-12-03T16:37:58.242Z,2.80
2022-12-03T16:40:25.012Z,2.90
2022-12-03T16:42:51.760Z,2.80
2022-12-03T16:45:51.588Z,2.80
2022-12-03T16:48:18.941Z,2.60
2022-12-03T16:50:45.762Z,2.50
2022-12-03T16:53:13.008Z,2.60
2022-12-03T16:55:39.818Z,2.50
2022-12-03T16:58:06.839Z,2.40
2022-12-03T17:00:33.555Z,2.20
2022-12-03T17:03:00.339Z,2.20
2022-12-03T17:05:27.129Z,2.30
2022-12-03T17:07:53.951Z,2.30
2022-12-03T17:10:20.838Z,2.30
2022-12-03T17:13:08.858Z,2.40
2022-12-03T17:15:34.387Z,2.40
2022-12-03T17:18:03.467Z,2.50
2022-12-03T17:20:31.007Z,2.30
2022-12-03T17:22:58.687Z,2.30
2022-12-03T17:25:25.830Z,2.20
2022-12-03T17:27:52.589Z,2.20
2022-12-03T17:30:19.552Z,2.20
2022-12-03T17:32:46.359Z,2.10
2022-12-03T17:35:16.318Z,2.10
2022-12-03T17:37:42.982Z,2.30
2022-12-03T17:40:12.343Z,2.30
2022-12-03T17:42:39.313Z,2.10
2022-12-03T17:45:06.717Z,2.10
2022-12-03T17:47:33.366Z,2.20
2022-12-03T17:50:00.026Z,2.00
2022-12-03T17:52:26.796Z,2.00
2022-12-03T17:55:10.958Z,2.20
2022-12-03T17:57:38.812Z,2.20
2022-12-03T18:00:08.868Z,2.20
2022-12-03T18:02:35.569Z,2.10
2022-12-03T18:05:02.810Z,2.00
2022-12-03T18:07:29.607Z,2.00
2022-12-03T18:09:56.627Z,2.00
2022-12-03T18:12:23.671Z,2.20
2022-12-03T18:14:50.257Z,2.10
2022-12-03T18:17:16.911Z,2.00
2022-12-03T18:19:43.652Z,1.90
2022-12-03T18:22:10.409Z,2.00
2022-12-03T18:24:37.134Z,2.10
2022-12-03T18:27:03.918Z,2.10
2022-12-03T18:29:30.572Z,2.20
2022-12-03T18:31:57.259Z,2.20
2022-12-03T18:34:23.990Z,2.10
2022-12-03T18:36:50.841Z,2.00
2022-12-03T18:39:37.024Z,2.00
2022-12-03T18:42:14.948Z,2.20
2022-12-03T18:44:46.341Z,2.20
2022-12-03T18:47:19.006Z,2.00
2022-12-03T18:49:46.027Z,2.00
2022-12-03T18:52:18.167Z,2.00
2022-12-03T18:54:45.397Z,1.90
2022-12-03T18:57:12.335Z,2.00
2022-12-03T18:59:39.074Z,2.00
2022-12-03T19:02:06.918Z,2.10
2022-12-03T19:04:33.882Z,2.00
2022-12-03T19:07:00.616Z,2.00
2022-12-03T19:09:27.355Z,2.00
2022-12-03T19:11:54.030Z,2.00
2022-12-03T19:14:20.768Z,2.00
2022-12-03T19:16:49.904Z,2.10
2022-12-03T19:19:17.184Z,2.10
2022-12-03T19:21:44.000Z,2.20
2022-12-03T19:24:26.269Z,2.10
2022-12-03T19:26:55.262Z,2.10
2022-12-03T19:29:25.270Z,2.00
2022-12-03T19:31:52.450Z,2.10
2022-12-03T19:34:19.853Z,2.10
2022-12-03T19:36:47.543Z,2.00
2022-12-03T19:39:14.426Z,2.00
2022-12-03T19:41:43.132Z,2.10
2022-12-03T19:44:13.180Z,2.10
2022-12-03T19:46:40.378Z,2.00
2022-12-03T19:49:07.259Z,2.10
2022-12-03T19:51:35.778Z,2.20
2022-12-03T19:54:06.853Z,2.30
2022-12-03T19:56:34.187Z,2.40
2022-12-03T19:59:01.512Z,2.50
2022-12-03T20:01:30.917Z,2.50
2022-12-03T20:03:59.757Z,2.60
2022-12-03T20:06:31.533Z,2.50
2022-12-03T20:09:07.201Z,2.60
2022-12-03T20:11:35.176Z,2.60
2022-12-03T20:14:08.651Z,2.50
2022-12-03T20:16:35.791Z,2.60
2022-12-03T20:19:05.547Z,2.40
2022-12-03T20:21:34.036Z,2.40
2022-12-03T20:24:01.065Z,2.50
2022-12-03T20:26:28.449Z,2.40
2022-12-03T20:28:56.820Z,2.20
2022-12-03T20:31:25.991Z,2.10
2022-12-03T20:33:58.397Z,2.10
2022-12-03T20:36:26.357Z,2.00
2022-12-03T20:38:57.776Z,2.10
2022-12-03T20:41:24.538Z,2.20
2022-12-03T20:43:51.868Z,2.30
2022-12-03T20:46:20.331Z,2.10
2022-12-03T20:48:47.255Z,2.20
2022-12-03T20:51:19.334Z,2.20
2022-12-03T20:53:46.851Z,2.10
2022-12-03T20:56:22.068Z,2.00
2022-12-03T20:58:49.531Z,2.00
2022-12-03T21:01:19.980Z,2.10
2022-12-03T21:03:47.970Z,2.20
2022-12-03T21:06:15.761Z,2.00
2022-12-03T21:08:43.471Z,1.90
2022-12-03T21:11:21.671Z,2.10
2022-12-03T21:13:48.463Z,2.10
2022-12-03T21:16:18.048Z,2.00
2022-12-03T21:18:45.731Z,2.10
2022-12-03T21:21:14.517Z,2.10
2022-12-03T21:23:41.885Z,2.10
2022-12-03T21:26:11.322Z,2.20
2022-12-03T21:28:39.840Z,2.00
2022-12-03T21:31:08.980Z,2.00
2022-12-03T21:33:36.141Z,2.00
2022-12-03T21:36:04.692Z,2.00
2022-12-03T21:38:31.912Z,2.10
2022-12-03T21:40:58.887Z,2.00
2022-12-03T21:43:25.804Z,1.90
2022-12-03T21:45:53.041Z,2.00
2022-12-03T21:48:20.243Z,2.10
2022-12-03T21:50:57.112Z,2.20
2022-12-03T21:53:23.818Z,2.10
2022-12-03T21:55:50.538Z,2.20
2022-12-03T21:58:17.335Z,2.10
2022-12-03T22:00:44.130Z,2.20
2022-12-03T22:03:10.845Z,2.30
2022-12-03T22:05:40.861Z,2.20
2022-12-03T22:08:07.734Z,2.30
2022-12-03T22:10:35.732Z,2.40
2022-12-03T22:13:02.767Z,2.40
2022-12-03T22:15:29.553Z,2.50
2022-12-03T22:17:56.300Z,2.40
2022-12-03T22:20:23.048Z,2.50
2022-12-03T22:22:49.823Z,2.60
2022-12-03T22:25:16.500Z,2.50
2022-12-03T22:27:43.257Z,2.40
2022-12-03T22:30:10.181Z,2.40
2022-12-03T22:32:36.911Z,2.40
2022-12-03T22:35:03.747Z,2.50
2022-12-03T22:37:30.381Z,2.40
2022-12-03T22:39:57.366Z,2.30
2022-12-03T22:42:24.675Z,2.30
2022-12-03T22:44:51.412Z,2.40
2022-12-03T22:47:18.098Z,2.30
2022-12-03T22:49:44.783Z,2.30
2022-12-03T22:52:11.518Z,2.30
2022-12-03T22:54:38.159Z,2.30
2022-12-03T22:57:05.010Z,2.40
2022-12-03T22:59:31.731Z,2.40
2022-12-03T23:01:58.427Z,2.50
2022-12-03T23:04:25.290Z,2.50
2022-12-03T23:06:52.015Z,2.50
2022-12-03T23:09:18.746Z,2.60
2022-12-03T23:11:46.044Z,2.50
2022-12-03T23:14:14.036Z,2.40
2022-12-03T23:16:40.967Z,2.40
2022-12-03T23:19:07.839Z,2.40
2022-12-03T23:21:35.111Z,2.50
2022-12-03T23:24:03.744Z,2.80
2022-12-03T23:26:33.060Z,2.70
2022-12-03T23:29:00.415Z,2.60
2022-12-03T23:31:29.652Z,2.40
2022-12-03T23:33:58.246Z,2.50
2022-12-03T23:36:26.473Z,2.40
2022-12-03T23:38:54.137Z,2.50
2022-12-03T23:41:22.469Z,2.70
2022-12-03T23:43:49.523Z,2.70
2022-12-03T23:46:19.572Z,2.60
2022-12-03T23:48:46.712Z,2.50
2022-12-03T23:51:15.626Z,2.60
2022-12-03T23:53:42.827Z,2.60
2022-12-03T23:56:13.074Z,2.60
2022-12-03T23:58:40.232Z,2.60
